sensor_id;sensor_type;location;lat;lon;timestamp;P1;durP1;ratioP1;P2;durP2;ratioP2
12141;SDS011;6134;59.284;18.022;2022-12-18T00:00:07;11.90;;;6.15;;
12141;SDS011;6134;59.284;18.022;2022-12-18T00:02:45;10.38;;;6.35;;
12141;SDS011;6134;59.284;18.022;2022-12-18T00:05:14;10.75;;;6.10;;
12141;SDS011;6134;59.284;18.022;2022-12-18T00:07:42;10.02;;;6.97;;
12141;SDS011;6134;59.284;18.022;2022-12-18T00:10:11;11.82;;;6.95;;
12141;SDS011;6134;59.284;18.022;2022-12-18T00:12:43;13.43;;;7.28;;
12141;SDS011;6134;59.284;18.022;2022-12-18T00:15:12;9.98;;;6.78;;
12141;SDS011;6134;59.284;18.022;2022-12-18T00:17:41;10.52;;;6.80;;
12141;SDS011;6134;59.284;18.022;2022-12-18T00:20:11;11.90;;;7.38;;
12141;SDS011;6134;59.284;18.022;2022-12-18T00:22:40;12.15;;;6.75;;
12141;SDS011;6134;59.284;18.022;2022-12-18T00:25:08;9.68;;;6.25;;
12141;SDS011;6134;59.284;18.022;2022-12-18T00:27:37;10.52;;;6.47;;
12141;SDS011;6134;59.284;18.022;2022-12-18T00:30:06;8.30;;;6.03;;
12141;SDS011;6134;59.284;18.022;2022-12-18T00:32:36;10.13;;;6.22;;
12141;SDS011;6134;59.284;18.022;2022-12-18T00:35:05;9.45;;;6.55;;
12141;SDS011;6134;59.284;18.022;2022-12-18T00:37:35;10.55;;;6.47;;
12141;SDS011;6134;59.284;18.022;2022-12-18T00:40:06;9.30;;;6.50;;
12141;SDS011;6134;59.284;18.022;2022-12-18T00:42:35;13.98;;;6.55;;
12141;SDS011;6134;59.284;18.022;2022-12-18T00:45:25;11.23;;;6.50;;
12141;SDS011;6134;59.284;18.022;2022-12-18T00:47:54;10.50;;;6.47;;
12141;SDS011;6134;59.284;18.022;2022-12-18T00:50:23;8.93;;;6.03;;
12141;SDS011;6134;59.284;18.022;2022-12-18T00:52:54;9.15;;;6.72;;
12141;SDS011;6134;59.284;18.022;2022-12-18T00:55:22;7.97;;;6.20;;
12141;SDS011;6134;59.284;18.022;2022-12-18T00:57:51;9.10;;;6.38;;
12141;SDS011;6134;59.284;18.022;2022-12-18T01:00:20;11.98;;;6.30;;
12141;SDS011;6134;59.284;18.022;2022-12-18T01:02:49;10.45;;;6.35;;
12141;SDS011;6134;59.284;18.022;2022-12-18T01:05:18;8.48;;;5.93;;
12141;SDS011;6134;59.284;18.022;2022-12-18T01:07:46;10.82;;;6.40;;
12141;SDS011;6134;59.284;18.022;2022-12-18T01:10:17;8.43;;;6.55;;
12141;SDS011;6134;59.284;18.022;2022-12-18T01:12:45;8.73;;;6.18;;
12141;SDS011;6134;59.284;18.022;2022-12-18T01:15:16;9.50;;;6.55;;
12141;SDS011;6134;59.284;18.022;2022-12-18T01:17:45;10.00;;;6.50;;
12141;SDS011;6134;59.284;18.022;2022-12-18T01:20:14;10.93;;;5.60;;
12141;SDS011;6134;59.284;18.022;2022-12-18T01:22:44;9.50;;;5.68;;
12141;SDS011;6134;59.284;18.022;2022-12-18T01:25:13;9.90;;;6.07;;
12141;SDS011;6134;59.284;18.022;2022-12-18T01:27:44;11.48;;;7.03;;
12141;SDS011;6134;59.284;18.022;2022-12-18T01:30:12;9.15;;;5.88;;
12141;SDS011;6134;59.284;18.022;2022-12-18T01:32:41;11.55;;;6.22;;
12141;SDS011;6134;59.284;18.022;2022-12-18T01:35:10;9.88;;;6.85;;
12141;SDS011;6134;59.284;18.022;2022-12-18T01:37:38;9.52;;;6.75;;
12141;SDS011;6134;59.284;18.022;2022-12-18T01:40:08;11.85;;;7.50;;
12141;SDS011;6134;59.284;18.022;2022-12-18T01:42:36;11.05;;;6.85;;
12141;SDS011;6134;59.284;18.022;2022-12-18T01:45:08;10.43;;;6.80;;
12141;SDS011;6134;59.284;18.022;2022-12-18T01:47:50;10.60;;;6.22;;
12141;SDS011;6134;59.284;18.022;2022-12-18T01:50:20;7.90;;;6.10;;
12141;SDS011;6134;59.284;18.022;2022-12-18T01:52:50;10.25;;;6.65;;
12141;SDS011;6134;59.284;18.022;2022-12-18T01:55:20;8.85;;;6.63;;
12141;SDS011;6134;59.284;18.022;2022-12-18T01:57:49;9.27;;;6.57;;
12141;SDS011;6134;59.284;18.022;2022-12-18T02:00:21;14.13;;;6.95;;
12141;SDS011;6134;59.284;18.022;2022-12-18T02:02:50;10.25;;;6.10;;
12141;SDS011;6134;59.284;18.022;2022-12-18T02:05:22;9.40;;;6.22;;
12141;SDS011;6134;59.284;18.022;2022-12-18T02:07:58;8.88;;;5.90;;
12141;SDS011;6134;59.284;18.022;2022-12-18T02:10:35;11.82;;;6.38;;
12141;SDS011;6134;59.284;18.022;2022-12-18T02:13:08;8.95;;;6.35;;
12141;SDS011;6134;59.284;18.022;2022-12-18T02:15:43;9.85;;;6.43;;
12141;SDS011;6134;59.284;18.022;2022-12-18T02:18:13;9.93;;;6.85;;
12141;SDS011;6134;59.284;18.022;2022-12-18T02:20:46;8.85;;;6.63;;
12141;SDS011;6134;59.284;18.022;2022-12-18T02:23:20;11.65;;;7.10;;
12141;SDS011;6134;59.284;18.022;2022-12-18T02:28:40;10.07;;;6.55;;
12141;SDS011;6134;59.284;18.022;2022-12-18T02:31:11;7.72;;;6.47;;
12141;SDS011;6134;59.284;18.022;2022-12-18T02:33:40;13.93;;;8.68;;
12141;SDS011;6134;59.284;18.022;2022-12-18T02:36:09;11.45;;;6.90;;
12141;SDS011;6134;59.284;18.022;2022-12-18T02:38:41;9.75;;;6.40;;
12141;SDS011;6134;59.284;18.022;2022-12-18T02:41:13;10.30;;;6.63;;
12141;SDS011;6134;59.284;18.022;2022-12-18T02:43:47;13.05;;;6.28;;
12141;SDS011;6134;59.284;18.022;2022-12-18T02:46:26;9.25;;;6.05;;
12141;SDS011;6134;59.284;18.022;2022-12-18T02:48:57;9.40;;;5.90;;
12141;SDS011;6134;59.284;18.022;2022-12-18T02:51:30;8.43;;;6.15;;
12141;SDS011;6134;59.284;18.022;2022-12-18T02:54:03;10.30;;;6.35;;
12141;SDS011;6134;59.284;18.022;2022-12-18T02:56:35;11.80;;;6.30;;
12141;SDS011;6134;59.284;18.022;2022-12-18T02:59:08;9.07;;;5.95;;
12141;SDS011;6134;59.284;18.022;2022-12-18T03:01:46;8.98;;;5.95;;
12141;SDS011;6134;59.284;18.022;2022-12-18T03:04:20;10.85;;;6.22;;
12141;SDS011;6134;59.284;18.022;2022-12-18T03:06:54;9.63;;;5.70;;
12141;SDS011;6134;59.284;18.022;2022-12-18T03:09:25;7.80;;;5.38;;
12141;SDS011;6134;59.284;18.022;2022-12-18T03:11:56;10.32;;;6.13;;
12141;SDS011;6134;59.284;18.022;2022-12-18T03:14:45;8.02;;;5.50;;
12141;SDS011;6134;59.284;18.022;2022-12-18T03:17:17;8.35;;;6.00;;
12141;SDS011;6134;59.284;18.022;2022-12-18T03:19:50;8.52;;;5.55;;
12141;SDS011;6134;59.284;18.022;2022-12-18T03:22:19;9.95;;;6.15;;
12141;SDS011;6134;59.284;18.022;2022-12-18T03:24:51;9.35;;;5.10;;
12141;SDS011;6134;59.284;18.022;2022-12-18T03:27:21;7.50;;;5.38;;
12141;SDS011;6134;59.284;18.022;2022-12-18T03:29:56;8.15;;;5.25;;
12141;SDS011;6134;59.284;18.022;2022-12-18T03:32:37;9.25;;;5.82;;
12141;SDS011;6134;59.284;18.022;2022-12-18T03:35:07;8.63;;;6.00;;
12141;SDS011;6134;59.284;18.022;2022-12-18T03:37:37;8.50;;;5.30;;
12141;SDS011;6134;59.284;18.022;2022-12-18T03:40:07;8.95;;;5.72;;
12141;SDS011;6134;59.284;18.022;2022-12-18T03:42:38;7.78;;;5.65;;
12141;SDS011;6134;59.284;18.022;2022-12-18T03:45:12;9.10;;;5.15;;
12141;SDS011;6134;59.284;18.022;2022-12-18T03:47:44;7.40;;;5.55;;
12141;SDS011;6134;59.284;18.022;2022-12-18T03:50:14;9.43;;;5.90;;
12141;SDS011;6134;59.284;18.022;2022-12-18T03:52:48;8.10;;;6.13;;
12141;SDS011;6134;59.284;18.022;2022-12-18T03:55:19;10.10;;;6.88;;
12141;SDS011;6134;59.284;18.022;2022-12-18T03:57:56;6.68;;;5.30;;
12141;SDS011;6134;59.284;18.022;2022-12-18T04:00:31;11.85;;;5.90;;
12141;SDS011;6134;59.284;18.022;2022-12-18T04:03:06;7.82;;;5.47;;
12141;SDS011;6134;59.284;18.022;2022-12-18T04:05:43;8.10;;;5.60;;
12141;SDS011;6134;59.284;18.022;2022-12-18T04:08:13;8.50;;;5.50;;
12141;SDS011;6134;59.284;18.022;2022-12-18T04:10:50;8.35;;;6.20;;
12141;SDS011;6134;59.284;18.022;2022-12-18T04:13:22;9.57;;;5.63;;
12141;SDS011;6134;59.284;18.022;2022-12-18T04:15:53;7.40;;;5.07;;
12141;SDS011;6134;59.284;18.022;2022-12-18T04:18:23;7.88;;;5.40;;
12141;SDS011;6134;59.284;18.022;2022-12-18T04:20:53;8.25;;;5.55;;
12141;SDS011;6134;59.284;18.022;2022-12-18T04:23:22;6.75;;;5.57;;
12141;SDS011;6134;59.284;18.022;2022-12-18T04:25:54;9.93;;;5.70;;
12141;SDS011;6134;59.284;18.022;2022-12-18T04:28:38;7.28;;;5.40;;
12141;SDS011;6134;59.284;18.022;2022-12-18T04:31:09;8.07;;;5.43;;
12141;SDS011;6134;59.284;18.022;2022-12-18T04:33:38;8.07;;;5.63;;
12141;SDS011;6134;59.284;18.022;2022-12-18T04:36:08;9.68;;;5.60;;
12141;SDS011;6134;59.284;18.022;2022-12-18T04:38:39;10.77;;;5.70;;
12141;SDS011;6134;59.284;18.022;2022-12-18T04:41:12;7.50;;;5.53;;
12141;SDS011;6134;59.284;18.022;2022-12-18T04:43:42;8.68;;;5.20;;
12141;SDS011;6134;59.284;18.022;2022-12-18T04:46:12;6.68;;;4.90;;
12141;SDS011;6134;59.284;18.022;2022-12-18T04:48:41;7.28;;;5.57;;
12141;SDS011;6134;59.284;18.022;2022-12-18T04:51:10;7.00;;;5.18;;
12141;SDS011;6134;59.284;18.022;2022-12-18T04:53:39;7.68;;;5.50;;
12141;SDS011;6134;59.284;18.022;2022-12-18T04:56:09;7.00;;;4.88;;
12141;SDS011;6134;59.284;18.022;2022-12-18T04:58:38;8.20;;;5.25;;
12141;SDS011;6134;59.284;18.022;2022-12-18T05:01:07;10.20;;;5.80;;
12141;SDS011;6134;59.284;18.022;2022-12-18T05:03:38;6.82;;;4.65;;
12141;SDS011;6134;59.284;18.022;2022-12-18T05:06:07;9.65;;;5.65;;
12141;SDS011;6134;59.284;18.022;2022-12-18T05:08:36;8.55;;;5.35;;
12141;SDS011;6134;59.284;18.022;2022-12-18T05:11:05;9.43;;;5.40;;
12141;SDS011;6134;59.284;18.022;2022-12-18T05:13:34;8.20;;;5.90;;
12141;SDS011;6134;59.284;18.022;2022-12-18T05:16:05;9.60;;;5.45;;
12141;SDS011;6134;59.284;18.022;2022-12-18T05:18:34;8.63;;;5.63;;
12141;SDS011;6134;59.284;18.022;2022-12-18T05:21:04;7.57;;;5.28;;
12141;SDS011;6134;59.284;18.022;2022-12-18T05:23:36;11.52;;;6.10;;
12141;SDS011;6134;59.284;18.022;2022-12-18T05:26:06;8.18;;;5.28;;
12141;SDS011;6134;59.284;18.022;2022-12-18T05:28:35;10.52;;;5.97;;
12141;SDS011;6134;59.284;18.022;2022-12-18T05:31:04;10.65;;;6.10;;
12141;SDS011;6134;59.284;18.022;2022-12-18T05:33:33;10.07;;;5.35;;
12141;SDS011;6134;59.284;18.022;2022-12-18T05:36:05;11.02;;;6.05;;
12141;SDS011;6134;59.284;18.022;2022-12-18T05:38:35;8.13;;;5.70;;
12141;SDS011;6134;59.284;18.022;2022-12-18T05:41:04;10.32;;;5.20;;
12141;SDS011;6134;59.284;18.022;2022-12-18T05:43:33;7.72;;;5.40;;
12141;SDS011;6134;59.284;18.022;2022-12-18T05:46:05;9.88;;;5.72;;
12141;SDS011;6134;59.284;18.022;2022-12-18T05:48:34;9.98;;;5.22;;
12141;SDS011;6134;59.284;18.022;2022-12-18T05:51:06;8.05;;;5.65;;
12141;SDS011;6134;59.284;18.022;2022-12-18T05:53:35;9.55;;;5.57;;
12141;SDS011;6134;59.284;18.022;2022-12-18T05:56:05;8.57;;;5.05;;
12141;SDS011;6134;59.284;18.022;2022-12-18T05:58:34;8.57;;;5.43;;
12141;SDS011;6134;59.284;18.022;2022-12-18T06:01:07;9.30;;;5.78;;
12141;SDS011;6134;59.284;18.022;2022-12-18T06:03:36;10.50;;;5.55;;
12141;SDS011;6134;59.284;18.022;2022-12-18T06:06:13;8.95;;;5.35;;
12141;SDS011;6134;59.284;18.022;2022-12-18T06:08:42;6.90;;;5.15;;
12141;SDS011;6134;59.284;18.022;2022-12-18T06:11:12;9.30;;;5.72;;
12141;SDS011;6134;59.284;18.022;2022-12-18T06:13:41;7.03;;;4.85;;
12141;SDS011;6134;59.284;18.022;2022-12-18T06:16:09;12.45;;;5.97;;
12141;SDS011;6134;59.284;18.022;2022-12-18T06:18:38;7.88;;;4.85;;
12141;SDS011;6134;59.284;18.022;2022-12-18T06:21:07;8.68;;;5.45;;
12141;SDS011;6134;59.284;18.022;2022-12-18T06:23:37;8.32;;;5.78;;
12141;SDS011;6134;59.284;18.022;2022-12-18T06:26:06;7.78;;;5.43;;
12141;SDS011;6134;59.284;18.022;2022-12-18T06:28:35;9.05;;;5.43;;
12141;SDS011;6134;59.284;18.022;2022-12-18T06:31:04;10.15;;;5.43;;
12141;SDS011;6134;59.284;18.022;2022-12-18T06:33:33;8.00;;;5.18;;
12141;SDS011;6134;59.284;18.022;2022-12-18T06:36:03;8.10;;;5.65;;
12141;SDS011;6134;59.284;18.022;2022-12-18T06:38:33;7.38;;;5.38;;
12141;SDS011;6134;59.284;18.022;2022-12-18T06:41:07;8.40;;;5.72;;
12141;SDS011;6134;59.284;18.022;2022-12-18T06:43:36;7.68;;;5.10;;
12141;SDS011;6134;59.284;18.022;2022-12-18T06:46:05;8.98;;;5.63;;
12141;SDS011;6134;59.284;18.022;2022-12-18T06:48:34;8.65;;;5.35;;
12141;SDS011;6134;59.284;18.022;2022-12-18T06:51:03;9.07;;;5.90;;
12141;SDS011;6134;59.284;18.022;2022-12-18T06:53:32;9.18;;;5.65;;
12141;SDS011;6134;59.284;18.022;2022-12-18T06:56:01;7.82;;;5.80;;
12141;SDS011;6134;59.284;18.022;2022-12-18T06:58:37;7.65;;;5.65;;
12141;SDS011;6134;59.284;18.022;2022-12-18T07:01:07;9.68;;;6.22;;
12141;SDS011;6134;59.284;18.022;2022-12-18T07:03:36;7.70;;;5.13;;
12141;SDS011;6134;59.284;18.022;2022-12-18T07:06:06;11.57;;;6.43;;
12141;SDS011;6134;59.284;18.022;2022-12-18T07:08:35;8.80;;;5.88;;
12141;SDS011;6134;59.284;18.022;2022-12-18T07:11:03;9.75;;;5.75;;
12141;SDS011;6134;59.284;18.022;2022-12-18T07:13:32;11.13;;;6.13;;
12141;SDS011;6134;59.284;18.022;2022-12-18T07:16:07;10.95;;;5.85;;
12141;SDS011;6134;59.284;18.022;2022-12-18T07:18:46;8.23;;;5.47;;
12141;SDS011;6134;59.284;18.022;2022-12-18T07:21:17;10.80;;;6.63;;
12141;SDS011;6134;59.284;18.022;2022-12-18T07:23:46;11.50;;;5.97;;
12141;SDS011;6134;59.284;18.022;2022-12-18T07:26:16;9.32;;;5.43;;
12141;SDS011;6134;59.284;18.022;2022-12-18T07:28:46;8.00;;;5.97;;
12141;SDS011;6134;59.284;18.022;2022-12-18T07:31:16;11.02;;;8.00;;
12141;SDS011;6134;59.284;18.022;2022-12-18T07:33:47;9.50;;;6.20;;
12141;SDS011;6134;59.284;18.022;2022-12-18T07:36:16;9.98;;;6.40;;
12141;SDS011;6134;59.284;18.022;2022-12-18T07:38:46;10.25;;;6.88;;
12141;SDS011;6134;59.284;18.022;2022-12-18T07:41:15;12.18;;;6.78;;
12141;SDS011;6134;59.284;18.022;2022-12-18T07:43:45;9.38;;;6.20;;
12141;SDS011;6134;59.284;18.022;2022-12-18T07:46:16;8.98;;;6.10;;
12141;SDS011;6134;59.284;18.022;2022-12-18T07:48:44;10.43;;;6.55;;
12141;SDS011;6134;59.284;18.022;2022-12-18T07:51:16;11.30;;;6.88;;
12141;SDS011;6134;59.284;18.022;2022-12-18T07:53:45;12.75;;;6.53;;
12141;SDS011;6134;59.284;18.022;2022-12-18T07:56:18;9.77;;;6.13;;
12141;SDS011;6134;59.284;18.022;2022-12-18T07:58:56;10.50;;;6.57;;
12141;SDS011;6134;59.284;18.022;2022-12-18T08:01:27;11.45;;;7.40;;
12141;SDS011;6134;59.284;18.022;2022-12-18T08:03:56;11.18;;;6.65;;
12141;SDS011;6134;59.284;18.022;2022-12-18T08:06:25;10.45;;;6.63;;
12141;SDS011;6134;59.284;18.022;2022-12-18T08:08:54;8.90;;;6.25;;
12141;SDS011;6134;59.284;18.022;2022-12-18T08:11:24;12.85;;;6.40;;
12141;SDS011;6134;59.284;18.022;2022-12-18T08:13:53;10.85;;;6.50;;
12141;SDS011;6134;59.284;18.022;2022-12-18T08:16:22;11.20;;;6.18;;
12141;SDS011;6134;59.284;18.022;2022-12-18T08:18:52;11.02;;;6.85;;
12141;SDS011;6134;59.284;18.022;2022-12-18T08:21:22;11.57;;;7.22;;
12141;SDS011;6134;59.284;18.022;2022-12-18T08:23:51;9.80;;;6.78;;
12141;SDS011;6134;59.284;18.022;2022-12-18T08:26:20;9.77;;;6.43;;
12141;SDS011;6134;59.284;18.022;2022-12-18T08:28:49;11.27;;;5.97;;
12141;SDS011;6134;59.284;18.022;2022-12-18T08:31:18;12.07;;;6.70;;
12141;SDS011;6134;59.284;18.022;2022-12-18T08:33:49;10.63;;;6.80;;
12141;SDS011;6134;59.284;18.022;2022-12-18T08:36:22;13.52;;;7.35;;
12141;SDS011;6134;59.284;18.022;2022-12-18T08:38:52;9.60;;;6.70;;
12141;SDS011;6134;59.284;18.022;2022-12-18T08:41:21;10.30;;;6.70;;
12141;SDS011;6134;59.284;18.022;2022-12-18T08:43:50;12.07;;;7.03;;
12141;SDS011;6134;59.284;18.022;2022-12-18T08:46:37;11.00;;;7.22;;
12141;SDS011;6134;59.284;18.022;2022-12-18T08:49:06;11.07;;;7.30;;
12141;SDS011;6134;59.284;18.022;2022-12-18T08:51:37;8.40;;;6.70;;
12141;SDS011;6134;59.284;18.022;2022-12-18T08:54:06;12.48;;;6.25;;
12141;SDS011;6134;59.284;18.022;2022-12-18T08:56:35;9.75;;;7.22;;
12141;SDS011;6134;59.284;18.022;2022-12-18T08:59:04;10.13;;;6.90;;
12141;SDS011;6134;59.284;18.022;2022-12-18T09:01:32;12.88;;;7.13;;
12141;SDS011;6134;59.284;18.022;2022-12-18T09:04:01;10.63;;;6.35;;
12141;SDS011;6134;59.284;18.022;2022-12-18T09:06:32;10.68;;;7.10;;
12141;SDS011;6134;59.284;18.022;2022-12-18T09:09:03;10.65;;;7.13;;
12141;SDS011;6134;59.284;18.022;2022-12-18T09:11:32;10.38;;;7.50;;
12141;SDS011;6134;59.284;18.022;2022-12-18T09:14:01;10.02;;;6.80;;
12141;SDS011;6134;59.284;18.022;2022-12-18T09:16:32;13.05;;;7.03;;
12141;SDS011;6134;59.284;18.022;2022-12-18T09:19:02;10.18;;;6.60;;
12141;SDS011;6134;59.284;18.022;2022-12-18T09:21:32;11.05;;;6.65;;
12141;SDS011;6134;59.284;18.022;2022-12-18T09:24:04;12.57;;;6.95;;
12141;SDS011;6134;59.284;18.022;2022-12-18T09:26:34;10.02;;;6.68;;
12141;SDS011;6134;59.284;18.022;2022-12-18T09:29:04;13.60;;;6.68;;
12141;SDS011;6134;59.284;18.022;2022-12-18T09:31:34;9.20;;;6.13;;
12141;SDS011;6134;59.284;18.022;2022-12-18T09:34:06;9.20;;;5.60;;
12141;SDS011;6134;59.284;18.022;2022-12-18T09:36:35;9.65;;;6.10;;
12141;SDS011;6134;59.284;18.022;2022-12-18T09:39:05;10.15;;;5.95;;
12141;SDS011;6134;59.284;18.022;2022-12-18T09:41:44;9.82;;;6.40;;
12141;SDS011;6134;59.284;18.022;2022-12-18T09:44:15;8.25;;;6.20;;
12141;SDS011;6134;59.284;18.022;2022-12-18T09:46:47;10.05;;;6.63;;
12141;SDS011;6134;59.284;18.022;2022-12-18T09:49:18;9.70;;;6.18;;
12141;SDS011;6134;59.284;18.022;2022-12-18T09:51:49;9.85;;;6.68;;
12141;SDS011;6134;59.284;18.022;2022-12-18T09:54:21;8.90;;;5.68;;
12141;SDS011;6134;59.284;18.022;2022-12-18T09:56:52;11.70;;;6.82;;
12141;SDS011;6134;59.284;18.022;2022-12-18T09:59:22;7.32;;;5.82;;
12141;SDS011;6134;59.284;18.022;2022-12-18T10:01:52;11.02;;;6.47;;
12141;SDS011;6134;59.284;18.022;2022-12-18T10:04:21;13.02;;;6.80;;
12141;SDS011;6134;59.284;18.022;2022-12-18T10:06:52;8.57;;;6.18;;
12141;SDS011;6134;59.284;18.022;2022-12-18T10:09:27;11.18;;;6.82;;
12141;SDS011;6134;59.284;18.022;2022-12-18T10:11:59;9.43;;;6.60;;
12141;SDS011;6134;59.284;18.022;2022-12-18T10:14:34;13.90;;;7.53;;
12141;SDS011;6134;59.284;18.022;2022-12-18T10:17:07;9.93;;;6.43;;
12141;SDS011;6134;59.284;18.022;2022-12-18T10:19:43;10.77;;;6.85;;
12141;SDS011;6134;59.284;18.022;2022-12-18T10:22:19;9.82;;;6.47;;
12141;SDS011;6134;59.284;18.022;2022-12-18T10:24:52;9.90;;;6.50;;
12141;SDS011;6134;59.284;18.022;2022-12-18T10:27:24;8.35;;;6.30;;
12141;SDS011;6134;59.284;18.022;2022-12-18T10:29:53;12.65;;;6.20;;
12141;SDS011;6134;59.284;18.022;2022-12-18T10:32:22;9.75;;;5.82;;
12141;SDS011;6134;59.284;18.022;2022-12-18T10:34:52;7.93;;;6.03;;
12141;SDS011;6134;59.284;18.022;2022-12-18T10:37:27;10.63;;;6.38;;
12141;SDS011;6134;59.284;18.022;2022-12-18T10:40:12;9.77;;;6.35;;
12141;SDS011;6134;59.284;18.022;2022-12-18T10:42:49;12.13;;;6.97;;
12141;SDS011;6134;59.284;18.022;2022-12-18T10:45:31;8.65;;;6.65;;
12141;SDS011;6134;59.284;18.022;2022-12-18T10:48:00;8.13;;;6.28;;
12141;SDS011;6134;59.284;18.022;2022-12-18T10:50:30;10.98;;;6.10;;
12141;SDS011;6134;59.284;18.022;2022-12-18T10:53:20;9.48;;;6.18;;
12141;SDS011;6134;59.284;18.022;2022-12-18T10:55:51;11.48;;;6.60;;
12141;SDS011;6134;59.284;18.022;2022-12-18T10:58:22;11.27;;;7.00;;
12141;SDS011;6134;59.284;18.022;2022-12-18T11:01:03;8.68;;;5.78;;
12141;SDS011;6134;59.284;18.022;2022-12-18T11:03:33;11.70;;;6.05;;
12141;SDS011;6134;59.284;18.022;2022-12-18T11:06:04;8.55;;;6.65;;
12141;SDS011;6134;59.284;18.022;2022-12-18T11:08:34;9.05;;;5.72;;
12141;SDS011;6134;59.284;18.022;2022-12-18T11:11:06;10.52;;;6.38;;
12141;SDS011;6134;59.284;18.022;2022-12-18T11:13:35;8.05;;;5.75;;
12141;SDS011;6134;59.284;18.022;2022-12-18T11:16:04;8.90;;;6.45;;
12141;SDS011;6134;59.284;18.022;2022-12-18T11:18:33;8.88;;;5.60;;
12141;SDS011;6134;59.284;18.022;2022-12-18T11:21:05;10.38;;;6.30;;
12141;SDS011;6134;59.284;18.022;2022-12-18T11:23:35;9.52;;;5.53;;
12141;SDS011;6134;59.284;18.022;2022-12-18T11:26:08;8.25;;;6.05;;
12141;SDS011;6134;59.284;18.022;2022-12-18T11:28:37;11.48;;;5.93;;
12141;SDS011;6134;59.284;18.022;2022-12-18T11:31:19;8.13;;;5.93;;
12141;SDS011;6134;59.284;18.022;2022-12-18T11:33:53;9.45;;;6.28;;
12141;SDS011;6134;59.284;18.022;2022-12-18T11:36:43;10.68;;;5.55;;
12141;SDS011;6134;59.284;18.022;2022-12-18T11:39:14;10.52;;;6.40;;
12141;SDS011;6134;59.284;18.022;2022-12-18T11:41:48;9.85;;;5.50;;
12141;SDS011;6134;59.284;18.022;2022-12-18T11:44:42;8.68;;;5.88;;
12141;SDS011;6134;59.284;18.022;2022-12-18T11:47:13;8.95;;;6.10;;
12141;SDS011;6134;59.284;18.022;2022-12-18T11:49:44;8.93;;;5.78;;
12141;SDS011;6134;59.284;18.022;2022-12-18T11:52:14;9.57;;;5.40;;
12141;SDS011;6134;59.284;18.022;2022-12-18T11:54:44;10.02;;;5.80;;
12141;SDS011;6134;59.284;18.022;2022-12-18T11:57:16;7.10;;;5.63;;
12141;SDS011;6134;59.284;18.022;2022-12-18T11:59:49;9.13;;;6.05;;
12141;SDS011;6134;59.284;18.022;2022-12-18T12:02:24;8.75;;;5.35;;
12141;SDS011;6134;59.284;18.022;2022-12-18T12:05:17;8.80;;;5.55;;
12141;SDS011;6134;59.284;18.022;2022-12-18T12:07:48;9.27;;;5.30;;
12141;SDS011;6134;59.284;18.022;2022-12-18T12:10:28;6.45;;;5.20;;
12141;SDS011;6134;59.284;18.022;2022-12-18T12:13:06;7.80;;;5.15;;
12141;SDS011;6134;59.284;18.022;2022-12-18T12:15:39;7.72;;;4.95;;
12141;SDS011;6134;59.284;18.022;2022-12-18T12:18:14;6.45;;;4.72;;
12141;SDS011;6134;59.284;18.022;2022-12-18T12:20:49;9.45;;;5.60;;
12141;SDS011;6134;59.284;18.022;2022-12-18T12:23:24;7.03;;;5.05;;
12141;SDS011;6134;59.284;18.022;2022-12-18T12:25:56;8.48;;;5.25;;
12141;SDS011;6134;59.284;18.022;2022-12-18T12:28:31;8.02;;;5.22;;
12141;SDS011;6134;59.284;18.022;2022-12-18T12:31:07;9.35;;;5.45;;
12141;SDS011;6134;59.284;18.022;2022-12-18T12:33:39;7.07;;;5.38;;
12141;SDS011;6134;59.284;18.022;2022-12-18T12:36:13;10.27;;;5.75;;
12141;SDS011;6134;59.284;18.022;2022-12-18T12:38:43;9.05;;;5.88;;
12141;SDS011;6134;59.284;18.022;2022-12-18T12:41:18;10.63;;;5.65;;
12141;SDS011;6134;59.284;18.022;2022-12-18T12:44:08;11.40;;;6.00;;
12141;SDS011;6134;59.284;18.022;2022-12-18T12:46:38;9.50;;;6.10;;
12141;SDS011;6134;59.284;18.022;2022-12-18T12:49:09;9.68;;;5.78;;
12141;SDS011;6134;59.284;18.022;2022-12-18T12:51:39;10.18;;;5.88;;
12141;SDS011;6134;59.284;18.022;2022-12-18T12:54:11;8.48;;;5.65;;
12141;SDS011;6134;59.284;18.022;2022-12-18T12:56:44;8.35;;;5.55;;
12141;SDS011;6134;59.284;18.022;2022-12-18T12:59:19;8.65;;;5.40;;
12141;SDS011;6134;59.284;18.022;2022-12-18T13:01:52;9.05;;;5.45;;
12141;SDS011;6134;59.284;18.022;2022-12-18T13:04:25;8.13;;;5.35;;
12141;SDS011;6134;59.284;18.022;2022-12-18T13:06:56;9.15;;;5.40;;
12141;SDS011;6134;59.284;18.022;2022-12-18T13:09:29;11.27;;;6.40;;
12141;SDS011;6134;59.284;18.022;2022-12-18T13:12:03;7.35;;;5.43;;
12141;SDS011;6134;59.284;18.022;2022-12-18T13:14:52;8.88;;;5.53;;
12141;SDS011;6134;59.284;18.022;2022-12-18T13:17:26;9.02;;;5.60;;
12141;SDS011;6134;59.284;18.022;2022-12-18T13:20:08;10.23;;;5.88;;
12141;SDS011;6134;59.284;18.022;2022-12-18T13:22:40;8.70;;;5.05;;
12141;SDS011;6134;59.284;18.022;2022-12-18T13:27:59;6.82;;;5.32;;
12141;SDS011;6134;59.284;18.022;2022-12-18T13:30:52;6.20;;;4.50;;
12141;SDS011;6134;59.284;18.022;2022-12-18T13:36:36;8.73;;;4.70;;
12141;SDS011;6134;59.284;18.022;2022-12-18T13:39:09;11.00;;;5.18;;
12141;SDS011;6134;59.284;18.022;2022-12-18T13:41:39;8.25;;;4.85;;
12141;SDS011;6134;59.284;18.022;2022-12-18T13:44:12;9.55;;;5.00;;
12141;SDS011;6134;59.284;18.022;2022-12-18T13:46:45;5.78;;;4.07;;
12141;SDS011;6134;59.284;18.022;2022-12-18T13:49:19;6.05;;;4.90;;
12141;SDS011;6134;59.284;18.022;2022-12-18T13:51:50;6.25;;;4.40;;
12141;SDS011;6134;59.284;18.022;2022-12-18T13:54:21;8.40;;;5.32;;
12141;SDS011;6134;59.284;18.022;2022-12-18T13:56:52;10.13;;;6.03;;
12141;SDS011;6134;59.284;18.022;2022-12-18T13:59:21;8.77;;;4.95;;
12141;SDS011;6134;59.284;18.022;2022-12-18T14:01:54;6.35;;;4.10;;
12141;SDS011;6134;59.284;18.022;2022-12-18T14:04:25;6.65;;;4.93;;
12141;SDS011;6134;59.284;18.022;2022-12-18T14:06:55;8.20;;;5.40;;
12141;SDS011;6134;59.284;18.022;2022-12-18T14:09:26;9.68;;;5.55;;
12141;SDS011;6134;59.284;18.022;2022-12-18T14:11:55;7.15;;;5.32;;
12141;SDS011;6134;59.284;18.022;2022-12-18T14:14:40;8.75;;;5.38;;
12141;SDS011;6134;59.284;18.022;2022-12-18T14:17:11;9.93;;;5.40;;
12141;SDS011;6134;59.284;18.022;2022-12-18T14:19:42;8.50;;;5.13;;
12141;SDS011;6134;59.284;18.022;2022-12-18T14:22:14;10.18;;;6.45;;
12141;SDS011;6134;59.284;18.022;2022-12-18T14:24:44;6.82;;;4.13;;
12141;SDS011;6134;59.284;18.022;2022-12-18T14:27:19;9.02;;;4.90;;
12141;SDS011;6134;59.284;18.022;2022-12-18T14:29:48;14.48;;;8.45;;
12141;SDS011;6134;59.284;18.022;2022-12-18T14:32:19;10.00;;;4.72;;
12141;SDS011;6134;59.284;18.022;2022-12-18T14:34:49;5.72;;;4.25;;
12141;SDS011;6134;59.284;18.022;2022-12-18T14:37:21;8.25;;;5.50;;
12141;SDS011;6134;59.284;18.022;2022-12-18T14:39:54;7.82;;;4.35;;
12141;SDS011;6134;59.284;18.022;2022-12-18T14:42:23;8.98;;;5.90;;
12141;SDS011;6134;59.284;18.022;2022-12-18T14:47:44;5.70;;;4.45;;
12141;SDS011;6134;59.284;18.022;2022-12-18T14:50:13;9.35;;;4.95;;
12141;SDS011;6134;59.284;18.022;2022-12-18T14:52:42;7.50;;;4.57;;
12141;SDS011;6134;59.284;18.022;2022-12-18T14:55:14;11.70;;;5.80;;
12141;SDS011;6134;59.284;18.022;2022-12-18T14:57:43;10.68;;;5.40;;
12141;SDS011;6134;59.284;18.022;2022-12-18T15:00:15;9.40;;;4.78;;
12141;SDS011;6134;59.284;18.022;2022-12-18T15:02:46;10.80;;;4.55;;
12141;SDS011;6134;59.284;18.022;2022-12-18T15:05:17;10.13;;;4.82;;
12141;SDS011;6134;59.284;18.022;2022-12-18T15:07:47;8.23;;;4.82;;
12141;SDS011;6134;59.284;18.022;2022-12-18T15:10:16;7.90;;;4.25;;
12141;SDS011;6134;59.284;18.022;2022-12-18T15:12:47;9.05;;;5.88;;
12141;SDS011;6134;59.284;18.022;2022-12-18T15:18:05;8.85;;;4.05;;
12141;SDS011;6134;59.284;18.022;2022-12-18T15:20:39;7.55;;;4.57;;
12141;SDS011;6134;59.284;18.022;2022-12-18T15:23:12;4.03;;;3.25;;